createdAt,value
2023-04-23T00:02:31.604Z,99.90
2023-04-23T00:07:34.361Z,99.90
2023-04-23T00:12:36.445Z,99.90
2023-04-23T00:17:38.267Z,99.90
2023-04-23T00:22:40.059Z,99.90
2023-04-23T00:27:41.865Z,99.90
2023-04-23T00:32:44.694Z,99.90
2023-04-23T00:37:46.549Z,99.90
2023-04-23T00:42:49.226Z,99.90
2023-04-23T00:47:51.370Z,99.90
2023-04-23T00:52:53.090Z,99.90
2023-04-23T00:57:55.532Z,99.90
2023-04-23T01:02:58.424Z,99.90
2023-04-23T01:08:00.747Z,99.90
2023-04-23T01:13:02.523Z,99.90
2023-04-23T01:18:04.667Z,99.90
2023-04-23T01:23:07.038Z,99.90
2023-04-23T01:28:09.195Z,99.90
2023-04-23T01:33:11.578Z,99.90
2023-04-23T01:38:14.637Z,99.90
2023-04-23T01:43:17.111Z,99.90
2023-04-23T01:48:19.086Z,99.90
2023-04-23T01:53:20.814Z,99.90
2023-04-23T01:58:23.760Z,99.90
2023-04-23T02:03:25.803Z,99.90
2023-04-23T02:08:28.400Z,99.90
2023-04-23T02:13:30.115Z,99.90
2023-04-23T02:18:31.852Z,99.90
2023-04-23T02:23:33.520Z,99.90
2023-04-23T02:28:35.230Z,99.90
2023-04-23T02:33:36.884Z,99.90
2023-04-23T02:38:42.276Z,99.90
2023-04-23T02:43:44.014Z,99.90
2023-04-23T02:48:45.684Z,99.90
2023-04-23T02:53:47.416Z,99.90
2023-04-23T02:58:49.236Z,99.90
2023-04-23T03:03:51.293Z,99.90
2023-04-23T03:08:53.146Z,99.90
2023-04-23T03:13:55.057Z,99.90
2023-04-23T03:18:57.093Z,99.90
2023-04-23T03:23:58.799Z,99.90
2023-04-23T03:29:00.725Z,99.90
2023-04-23T03:34:03.063Z,99.90
2023-04-23T03:39:04.941Z,99.90
2023-04-23T03:44:06.699Z,99.90
2023-04-23T03:49:08.396Z,99.90
2023-04-23T03:54:10.748Z,99.90
2023-04-23T03:59:12.437Z,99.90
2023-04-23T04:04:14.888Z,99.90
2023-04-23T04:09:17.174Z,99.90
2023-04-23T04:14:18.845Z,99.90
2023-04-23T04:19:20.735Z,99.90
2023-04-23T04:24:24.367Z,99.90
2023-04-23T04:29:28.219Z,99.90
2023-04-23T04:34:29.914Z,99.90
2023-04-23T04:39:31.570Z,99.90
2023-04-23T04:44:33.335Z,99.90
2023-04-23T04:49:35.949Z,99.90
2023-04-23T04:54:37.636Z,99.90
2023-04-23T04:59:39.557Z,99.90
2023-04-23T05:04:41.825Z,99.90
2023-04-23T05:09:45.042Z,99.90
2023-04-23T05:14:47.126Z,99.90
2023-04-23T05:19:48.824Z,99.90
2023-04-23T05:24:50.561Z,99.90
2023-04-23T05:29:52.340Z,99.90
2023-04-23T05:34:55.411Z,99.90
2023-04-23T05:39:58.258Z,99.90
2023-04-23T05:44:59.991Z,99.90
2023-04-23T05:50:02.614Z,99.90
2023-04-23T05:55:04.710Z,99.90
2023-04-23T06:00:09.859Z,99.90
2023-04-23T06:05:11.890Z,99.90
2023-04-23T06:10:14.020Z,99.90
2023-04-23T06:15:15.811Z,99.90
2023-04-23T06:20:17.637Z,99.90
2023-04-23T06:25:19.349Z,99.90
2023-04-23T06:30:21.196Z,99.90
2023-04-23T06:35:23.056Z,99.90
2023-04-23T06:40:24.838Z,99.90
2023-04-23T06:45:26.672Z,99.90
2023-04-23T06:50:28.542Z,99.90
2023-04-23T06:55:30.290Z,99.90
2023-04-23T07:00:32.213Z,99.90
2023-04-23T07:05:33.935Z,99.90
2023-04-23T07:10:35.716Z,99.90
2023-04-23T07:15:38.068Z,99.90
2023-04-23T07:20:39.801Z,99.90
2023-04-23T07:25:41.534Z,99.90
2023-04-23T07:30:43.307Z,99.90
2023-04-23T07:35:45.131Z,99.90
2023-04-23T07:40:47.407Z,99.90
2023-04-23T07:45:49.154Z,99.90
2023-04-23T07:50:51.195Z,99.90
2023-04-23T07:55:53.052Z,99.90
2023-04-23T08:00:54.772Z,99.90
2023-04-23T08:05:56.915Z,99.90
2023-04-23T08:10:58.894Z,99.90
2023-04-23T08:16:00.684Z,99.90
2023-04-23T08:21:02.365Z,99.90
2023-04-23T08:26:04.046Z,99.90
2023-04-23T08:31:18.882Z,99.90
2023-04-23T08:36:26.106Z,99.90
2023-04-23T08:41:36.423Z,99.90
2023-04-23T08:46:43.139Z,99.90
2023-04-23T08:51:53.365Z,99.90
2023-04-23T08:56:58.931Z,99.90
2023-04-23T09:02:01.730Z,99.90
2023-04-23T09:07:04.646Z,99.90
2023-04-23T09:12:07.702Z,99.90
2023-04-23T09:17:09.422Z,99.90
2023-04-23T09:22:11.283Z,99.90
2023-04-23T09:27:13.005Z,99.90
2023-04-23T09:32:14.811Z,99.90
2023-04-23T09:37:19.058Z,99.90
2023-04-23T09:42:24.148Z,99.90
2023-04-23T09:47:26.266Z,99.90
2023-04-23T09:52:31.028Z,99.90
2023-04-23T09:57:41.557Z,99.90
2023-04-23T10:02:50.919Z,99.90
2023-04-23T10:07:53.261Z,99.90
2023-04-23T10:12:56.043Z,99.90
2023-04-23T10:17:59.311Z,99.90
2023-04-23T10:23:01.884Z,99.90
2023-04-23T10:28:06.090Z,99.40
2023-04-23T10:33:15.783Z,99.90
2023-04-23T10:38:22.302Z,98.80
2023-04-23T10:43:24.847Z,97.60
2023-04-23T10:48:28.609Z,96.70
2023-04-23T10:53:32.013Z,96.60
2023-04-23T10:58:51.299Z,97.20
2023-04-23T11:03:53.171Z,97.60
2023-04-23T11:08:59.359Z,98.10
2023-04-23T11:14:14.270Z,97.00
2023-04-23T11:19:19.891Z,97.80
2023-04-23T11:24:42.941Z,96.40
2023-04-23T11:29:46.394Z,97.80
2023-04-23T11:34:50.402Z,98.30
2023-04-23T11:39:52.090Z,95.70
2023-04-23T11:44:53.780Z,96.80
2023-04-23T11:49:55.554Z,94.50
2023-04-23T11:55:03.145Z,94.20
2023-04-23T12:00:19.381Z,95.70
2023-04-23T12:05:44.717Z,96.10
2023-04-23T12:10:50.715Z,95.40
2023-04-23T12:15:58.884Z,95.80
2023-04-23T12:21:08.201Z,96.70
2023-04-23T12:26:15.244Z,96.50
2023-04-23T12:31:25.386Z,95.10
2023-04-23T12:36:30.078Z,95.30
2023-04-23T12:41:33.547Z,95.90
2023-04-23T12:46:35.365Z,95.30
2023-04-23T12:51:37.497Z,95.30
2023-04-23T12:56:39.349Z,94.50
2023-04-23T13:01:41.727Z,94.60
2023-04-23T13:06:43.718Z,94.20
2023-04-23T13:11:46.924Z,95.10
2023-04-23T13:16:49.280Z,95.20
2023-04-23T13:21:51.142Z,95.40
2023-04-23T13:26:52.901Z,95.80
2023-04-23T13:31:55.678Z,95.70
2023-04-23T13:36:58.420Z,96.30
2023-04-23T13:42:09.150Z,94.00
2023-04-23T13:47:11.895Z,94.30
2023-04-23T13:52:13.578Z,93.70
2023-04-23T13:57:15.572Z,94.60
2023-04-23T14:02:17.258Z,92.60
2023-04-23T14:07:19.256Z,93.20
2023-04-23T14:12:21.132Z,94.00
2023-04-23T14:17:23.019Z,94.90
2023-04-23T14:22:24.815Z,93.00
2023-04-23T14:27:33.587Z,94.60
2023-04-23T14:32:35.344Z,95.70
2023-04-23T14:37:37.128Z,95.70
2023-04-23T14:42:39.573Z,95.50
2023-04-23T14:47:43.905Z,98.60
2023-04-23T14:52:49.298Z,99.90
2023-04-23T14:57:50.955Z,99.90
2023-04-23T15:02:52.834Z,99.90
2023-04-23T15:07:54.623Z,99.90
2023-04-23T15:13:08.361Z,99.90
2023-04-23T15:18:10.644Z,99.90
2023-04-23T15:23:12.364Z,99.90
2023-04-23T15:28:14.057Z,99.90
2023-04-23T15:33:17.649Z,98.90
2023-04-23T15:38:19.307Z,98.00
2023-04-23T15:43:21.018Z,96.70
2023-04-23T15:48:24.186Z,97.30
2023-04-23T15:53:27.880Z,96.50
2023-04-23T15:58:29.671Z,97.40
2023-04-23T16:03:31.494Z,97.80
2023-04-23T16:08:33.289Z,98.00
2023-04-23T16:13:35.790Z,97.70
2023-04-23T16:18:37.536Z,97.40
2023-04-23T16:23:39.227Z,97.40
2023-04-23T16:28:41.126Z,97.60
2023-04-23T16:33:42.818Z,98.00
2023-04-23T16:38:47.344Z,98.50
2023-04-23T16:43:50.582Z,98.30
2023-04-23T16:48:52.379Z,97.80
2023-04-23T16:53:54.285Z,98.80
2023-04-23T16:58:56.343Z,98.80
2023-04-23T17:03:58.347Z,99.50
2023-04-23T17:09:02.234Z,99.80
2023-04-23T17:14:04.008Z,99.90
2023-04-23T17:19:05.736Z,99.80
2023-04-23T17:24:07.595Z,99.90
2023-04-23T17:29:09.430Z,99.90
2023-04-23T17:34:11.258Z,99.80
2023-04-23T17:39:13.032Z,99.90
2023-04-23T17:44:14.822Z,99.90
2023-04-23T17:49:16.508Z,99.90
2023-04-23T17:54:18.292Z,99.90
2023-04-23T17:59:20.031Z,99.90
2023-04-23T18:04:22.859Z,99.90
2023-04-23T18:09:25.225Z,99.90
2023-04-23T18:14:27.179Z,99.90
2023-04-23T18:19:31.013Z,99.90
2023-04-23T18:24:32.951Z,99.90
2023-04-23T18:29:34.640Z,99.90
2023-04-23T18:34:40.873Z,99.90
2023-04-23T18:39:42.567Z,99.90
2023-04-23T18:44:44.387Z,99.90
2023-04-23T18:49:53.566Z,99.90
2023-04-23T18:54:55.548Z,99.90
2023-04-23T18:59:57.669Z,99.90
2023-04-23T19:04:59.767Z,99.90
2023-04-23T19:10:01.634Z,99.90
2023-04-23T19:15:03.814Z,99.90
2023-04-23T19:20:09.281Z,99.90
2023-04-23T19:25:11.372Z,99.90
2023-04-23T19:30:13.438Z,99.90
2023-04-23T19:35:15.431Z,99.90
2023-04-23T19:40:17.172Z,99.90
2023-04-23T19:45:19.056Z,99.90
2023-04-23T19:50:21.041Z,99.90
2023-04-23T19:55:26.938Z,99.90
2023-04-23T20:00:31.154Z,99.90
2023-04-23T20:05:33.012Z,99.90
2023-04-23T20:10:34.734Z,99.90
2023-04-23T20:15:36.782Z,99.90
2023-04-23T20:20:40.296Z,99.90
2023-04-23T20:25:42.210Z,99.90
2023-04-23T20:30:43.875Z,99.90
2023-04-23T20:35:45.629Z,99.90
2023-04-23T20:40:47.738Z,99.90
2023-04-23T20:45:49.582Z,99.90
2023-04-23T20:50:51.298Z,99.90
2023-04-23T20:55:52.990Z,99.90
2023-04-23T21:00:54.706Z,99.90
2023-04-23T21:05:58.603Z,99.90
2023-04-23T21:11:01.582Z,99.90
2023-04-23T21:16:03.550Z,99.90
2023-04-23T21:21:05.438Z,99.90
2023-04-23T21:26:08.227Z,99.90
2023-04-23T21:31:17.561Z,99.90
2023-04-23T21:36:19.270Z,99.90
2023-04-23T21:41:21.079Z,99.90
2023-04-23T21:46:23.814Z,99.90
2023-04-23T21:51:26.145Z,99.90
2023-04-23T21:56:27.854Z,99.90
2023-04-23T22:01:29.958Z,99.90
2023-04-23T22:06:31.820Z,99.90
2023-04-23T22:11:34.593Z,99.90
2023-04-23T22:16:36.339Z,99.90
2023-04-23T22:21:38.129Z,99.90
2023-04-23T22:26:39.830Z,99.90
2023-04-23T22:31:41.580Z,99.90
2023-04-23T22:36:43.513Z,99.90
2023-04-23T22:41:45.240Z,99.90
2023-04-23T22:46:48.057Z,99.90
2023-04-23T22:51:49.777Z,99.90
2023-04-23T22:56:52.072Z,99.90
2023-04-23T23:01:53.839Z,99.90
2023-04-23T23:06:55.637Z,99.90
2023-04-23T23:11:57.292Z,99.90
2023-04-23T23:16:59.380Z,99.90
2023-04-23T23:22:01.204Z,99.90
2023-04-23T23:27:02.942Z,99.90
2023-04-23T23:32:04.778Z,99.90
2023-04-23T23:37:06.705Z,99.90
2023-04-23T23:42:08.385Z,99.90
2023-04-23T23:47:10.119Z,99.90
2023-04-23T23:52:11.981Z,99.90
2023-04-23T23:57:13.657Z,99.90
